Time;durP1;ratioP1;P1;durP2;ratioP2;P2;SDS_P1;SDS_P2;PMS_P1;PMS_P2;Temp;Humidity;BMP_temperature;BMP_pressure;BME280_temperature;BME280_humidity;BME280_pressure;Samples;Min_cycle;Max_cycle;Signal;HPM_P1;HPM_P2
2023/10/02 00:02:06;;;;;;;;;;;;;;;18.18;100.00;100588.47;4924596;29;19966;-77
2023/10/02 00:04:34;;;;;;;;;;;;;;;18.17;100.00;100592.13;4908250;29;20025;-76
2023/10/02 00:07:06;;;;;;;;;;;;;;;18.15;100.00;100588.78;4923887;29;19922;-76
2023/10/02 00:09:38;;;;;;;;;;;;;;;18.07;100.00;100586.13;4926850;29;19970;-76
2023/10/02 00:12:13;;;;;;;;;;;;;;;17.92;100.00;100587.75;4923096;29;19923;-77
2023/10/02 00:14:41;;;;;;;;;;;;;;;17.84;100.00;100587.78;4921205;29;20368;-76
2023/10/02 00:17:08;;;;;;;;;;;;;;;17.83;100.00;100586.94;4926412;29;19989;-77
2023/10/02 00:19:44;;;;;;;;;;;;;;;17.75;100.00;100588.75;4923830;29;20292;-75
2023/10/02 00:22:34;;;;;;;;;;;;;;;17.64;100.00;100589.88;4920494;29;20301;-76
2023/10/02 00:24:57;;;;;;;;;;;;;;;17.51;100.00;100584.13;4926437;29;19970;-75
2023/10/02 00:27:23;;;;;;;;;;;;;;;17.50;100.00;100588.63;4922976;29;20026;-75
2023/10/02 00:29:51;;;;;;;;;;;;;;;17.39;100.00;100586.28;4901221;29;20025;-76
2023/10/02 00:32:19;;;;;;;;;;;;;;;17.36;100.00;100583.94;4901864;29;19923;-75
2023/10/02 00:34:48;;;;;;;;;;;;;;;17.44;100.00;100589.28;4908526;29;20021;-76
2023/10/02 00:37:13;;;;;;;;;;;;;;;17.46;100.00;100587.31;4923686;29;19923;-76
2023/10/02 00:39:40;;;;;;;;;;;;;;;17.42;100.00;100591.31;4907108;29;19930;-76
2023/10/02 00:47:38;;;;;;;;;;;;;;;17.51;100.00;100592.97;4922926;29;20021;-76
2023/10/02 00:50:08;;;;;;;;;;;;;;;17.52;100.00;100586.66;4900261;29;19931;-76
2023/10/02 00:52:43;;;;;;;;;;;;;;;17.59;100.00;100582.34;4925958;29;20272;-75
2023/10/02 00:55:14;;;;;;;;;;;;;;;17.52;100.00;100586.66;4920613;29;20377;-76
2023/10/02 00:57:41;;;;;;;;;;;;;;;17.49;100.00;100584.31;4923594;29;19952;-75
2023/10/02 01:00:17;;;;;;;;;;;;;;;17.40;100.00;100582.63;4920697;29;19927;-75
2023/10/02 01:02:57;;;;;;;;;;;;;;;17.37;100.00;100574.94;4905070;29;20018;-76
2023/10/02 01:05:30;;;;;;;;;;;;;;;17.39;100.00;100575.59;4907813;29;19923;-76
2023/10/02 01:07:56;;;;;;;;;;;;;;;17.39;100.00;100580.09;4920038;29;19962;-75
2023/10/02 01:10:23;;;;;;;;;;;;;;;17.35;100.00;100579.59;4926458;29;19923;-75
2023/10/02 01:12:53;;;;;;;;;;;;;;;17.31;100.00;100583.59;4905741;29;19977;-76
2023/10/02 01:15:19;;;;;;;;;;;;;;;17.27;100.00;100582.22;4924861;29;19938;-76
2023/10/02 01:17:48;;;;;;;;;;;;;;;17.22;100.00;100579.22;4925681;29;19990;-77
2023/10/02 01:23:11;;;;;;;;;;;;;;;17.20;100.00;100579.34;4923180;29;19983;-76
2023/10/02 01:25:40;;;;;;;;;;;;;;;17.18;100.00;100575.19;4923170;29;19919;-76
2023/10/02 01:28:09;;;;;;;;;;;;;;;17.17;100.00;100573.53;4905406;29;19923;-76
2023/10/02 01:30:35;;;;;;;;;;;;;;;17.15;100.00;100567.50;4922656;29;19919;-75
2023/10/02 01:35:46;;;;;;;;;;;;;;;17.18;100.00;100572.53;4921928;29;20415;-76
2023/10/02 01:38:18;;;;;;;;;;;;;;;17.24;100.00;100566.56;4923235;29;19934;-75
2023/10/02 01:41:23;;;;;;;;;;;;;;;17.26;100.00;100567.22;4920397;29;19999;-76
2023/10/02 01:43:45;;;;;;;;;;;;;;;17.25;100.00;100568.22;4918383;29;20376;-76
2023/10/02 01:46:17;;;;;;;;;;;;;;;17.22;100.00;100573.88;4920105;29;19994;-76
2023/10/02 01:48:50;;;;;;;;;;;;;;;17.13;100.00;100575.69;4922042;29;19919;-76
2023/10/02 01:51:26;;;;;;;;;;;;;;;17.05;100.00;100577.47;4926554;29;20320;-76
2023/10/02 01:53:51;;;;;;;;;;;;;;;17.05;100.00;100566.81;4925230;29;19919;-76
2023/10/02 01:56:17;;;;;;;;;;;;;;;17.03;100.00;100568.78;4919226;29;20357;-75
2023/10/02 01:58:44;;;;;;;;;;;;;;;17.00;100.00;100571.78;4898130;29;20384;-77
2023/10/02 02:01:09;;;;;;;;;;;;;;;17.06;100.00;100571.97;4902011;29;20017;-76
2023/10/02 02:03:36;;;;;;;;;;;;;;;17.04;100.00;100575.78;4897983;29;19923;-76
2023/10/02 02:06:11;;;;;;;;;;;;;;;16.98;100.00;100577.25;4923687;29;20034;-76
2023/10/02 02:08:43;;;;;;;;;;;;;;;16.88;100.00;100570.38;4917563;29;20328;-75
2023/10/02 02:11:16;;;;;;;;;;;;;;;16.92;100.00;100567.22;4902120;29;19926;-76
2023/10/02 02:13:48;;;;;;;;;;;;;;;17.00;100.00;100574.44;4923620;29;19938;-75
2023/10/02 02:16:15;;;;;;;;;;;;;;;16.96;100.00;100573.94;4920049;29;19919;-76
2023/10/02 02:18:42;;;;;;;;;;;;;;;17.00;100.00;100569.13;4904045;29;19929;-76
2023/10/02 02:21:10;;;;;;;;;;;;;;;17.04;100.00;100575.78;4903568;29;19931;-76
2023/10/02 02:23:36;;;;;;;;;;;;;;;17.03;100.00;100574.13;4923531;29;19993;-77
2023/10/02 02:26:01;;;;;;;;;;;;;;;16.96;100.00;100571.28;4924387;29;20368;-76
2023/10/02 02:28:28;;;;;;;;;;;;;;;16.91;100.00;100570.88;4921429;29;20615;-77
2023/10/02 02:30:55;;;;;;;;;;;;;;;16.97;100.00;100574.75;4918634;29;20447;-76
2023/10/02 02:33:34;;;;;;;;;;;;;;;16.94;100.00;100570.59;4921917;29;19995;-76
2023/10/02 02:36:06;;;;;;;;;;;;;;;16.96;100.00;100567.78;4907262;29;19923;-77
2023/10/02 02:38:33;;;;;;;;;;;;;;;16.95;100.00;100571.44;4898792;29;19923;-77
2023/10/02 02:41:07;;;;;;;;;;;;;;;16.98;100.00;100568.44;4913263;29;19923;-76
2023/10/02 02:43:33;;;;;;;;;;;;;;;17.02;100.00;100557.28;4921815;29;19930;-76
2023/10/02 02:45:59;;;;;;;;;;;;;;;17.08;100.00;100566.50;4920496;29;19995;-77
2023/10/02 02:48:36;;;;;;;;;;;;;;;17.13;100.00;100569.50;4919163;29;19923;-76
2023/10/02 02:51:14;;;;;;;;;;;;;;;17.14;100.00;100565.84;4885809;29;19919;-76
2023/10/02 02:53:40;;;;;;;;;;;;;;;17.05;100.00;100561.47;4922838;29;19927;-76
2023/10/02 02:56:17;;;;;;;;;;;;;;;17.02;100.00;100562.59;4907416;29;20015;-77
2023/10/02 02:58:48;;;;;;;;;;;;;;;17.01;100.00;100573.47;4925900;29;19930;-77
2023/10/02 03:01:22;;;;;;;;;;;;;;;17.08;100.00;100561.16;4921215;29;19923;-76
2023/10/02 03:03:51;;;;;;;;;;;;;;;17.04;100.00;100562.47;4920222;29;20419;-77
2023/10/02 03:06:17;;;;;;;;;;;;;;;17.01;100.00;100565.47;4928868;29;19919;-76
2023/10/02 03:08:44;;;;;;;;;;;;;;;16.93;100.00;100563.56;4926601;29;19931;-75
2023/10/02 03:11:10;;;;;;;;;;;;;;;16.96;100.00;100562.44;4925202;29;20375;-76
2023/10/02 03:13:40;;;;;;;;;;;;;;;16.90;100.00;100569.25;4927508;29;19951;-76
2023/10/02 03:16:12;;;;;;;;;;;;;;;16.91;100.00;100567.38;4923425;29;20422;-77
2023/10/02 03:18:40;;;;;;;;;;;;;;;16.94;100.00;100567.91;4924135;29;20019;-77
2023/10/02 03:21:14;;;;;;;;;;;;;;;16.91;100.00;100570.06;4923883;29;19927;-76
2023/10/02 03:23:42;;;;;;;;;;;;;;;16.93;100.00;100573.41;4924151;29;19923;-75
2023/10/02 03:26:21;;;;;;;;;;;;;;;16.92;100.00;100577.06;4906677;29;20377;-74
2023/10/02 03:28:47;;;;;;;;;;;;;;;16.94;100.00;100581.25;4922934;29;20444;-76
2023/10/02 03:31:34;;;;;;;;;;;;;;;16.96;100.00;100573.94;4923391;29;20386;-75
2023/10/02 03:34:00;;;;;;;;;;;;;;;16.96;100.00;100573.09;4926609;29;19926;-76
2023/10/02 03:36:27;;;;;;;;;;;;;;;16.97;100.00;100569.41;4923987;29;20280;-77
2023/10/02 03:38:57;;;;;;;;;;;;;;;16.98;100.00;100563.94;4925165;29;19931;-76
2023/10/02 03:41:44;;;;;;;;;;;;;;;16.98;100.00;100565.75;4911364;29;19923;-75
2023/10/02 03:44:07;;;;;;;;;;;;;;;16.97;100.00;100569.41;4925573;29;19942;-75
2023/10/02 03:46:37;;;;;;;;;;;;;;;16.85;100.00;100560.06;4926070;29;19927;-75
2023/10/02 03:49:04;;;;;;;;;;;;;;;16.89;100.00;100572.06;4923295;29;19923;-76
2023/10/02 03:51:41;;;;;;;;;;;;;;;16.90;100.00;100568.41;4926978;29;19926;-74
2023/10/02 03:54:20;;;;;;;;;;;;;;;16.97;100.00;100564.09;4927126;29;20089;-76
2023/10/02 03:56:49;;;;;;;;;;;;;;;17.00;100.00;100559.28;4924183;29;19930;-74
2023/10/02 03:59:17;;;;;;;;;;;;;;;17.03;100.00;100558.94;4925176;29;19923;-75
2023/10/02 04:01:43;;;;;;;;;;;;;;;17.05;100.00;100556.13;4925318;29;19922;-74
2023/10/02 04:06:42;;;;;;;;;;;;;;;17.09;100.00;100554.81;4917484;29;19963;-76
2023/10/02 04:11:45;;;;;;;;;;;;;;;16.84;100.00;100558.38;4925476;29;20056;-75
2023/10/02 04:17:13;;;;;;;;;;;;;;;16.74;100.00;100563.81;4922477;29;20411;-77
2023/10/02 04:19:48;;;;;;;;;;;;;;;16.70;100.00;100557.97;4917713;29;19927;-78
2023/10/02 04:22:19;;;;;;;;;;;;;;;16.72;100.00;100550.66;4924446;29;19923;-78
2023/10/02 04:24:58;;;;;;;;;;;;;;;16.79;100.00;100557.00;4922216;29;19924;-78
2023/10/02 04:27:25;;;;;;;;;;;;;;;16.78;100.00;100555.34;4912189;29;20002;-75
2023/10/02 04:32:33;;;;;;;;;;;;;;;16.74;100.00;100548.66;4924849;29;20029;-78
2023/10/02 04:35:02;;;;;;;;;;;;;;;16.67;100.00;100552.13;4920718;29;19923;-75
2023/10/02 04:37:31;;;;;;;;;;;;;;;16.64;100.00;100555.94;4928576;29;19926;-79
2023/10/02 04:42:28;;;;;;;;;;;;;;;16.54;100.00;100552.50;4921210;29;20003;-78
2023/10/02 04:44:58;;;;;;;;;;;;;;;16.57;100.00;100557.50;4919340;29;19926;-79
2023/10/02 04:47:27;;;;;;;;;;;;;;;16.50;100.00;100559.13;4918575;29;19927;-78
2023/10/02 04:52:53;;;;;;;;;;;;;;;16.47;100.00;100555.94;4906922;29;19927;-77
2023/10/02 04:55:15;;;;;;;;;;;;;;;16.48;100.00;100558.47;4924305;29;19986;-77
2023/10/02 04:57:42;;;;;;;;;;;;;;;16.51;100.00;100563.47;4901377;29;19942;-77
2023/10/02 05:00:26;;;;;;;;;;;;;;;16.51;100.00;100567.94;4926283;29;20292;-80
2023/10/02 05:03:09;;;;;;;;;;;;;;;16.54;100.00;100563.16;4902773;29;19927;-81
2023/10/02 05:05:38;;;;;;;;;;;;;;;16.51;100.00;100574.13;4908872;29;19924;-78
2023/10/02 05:08:10;;;;;;;;;;;;;;;16.46;100.00;100573.75;4908834;29;19923;-77
2023/10/02 05:10:37;;;;;;;;;;;;;;;16.50;100.00;100575.09;4902112;29;20021;-81
2023/10/02 05:13:05;;;;;;;;;;;;;;;16.46;100.00;100581.75;4904648;29;19927;-81
2023/10/02 05:15:31;;;;;;;;;;;;;;;16.48;100.00;100582.44;4881817;29;20454;-79
2023/10/02 05:17:57;;;;;;;;;;;;;;;16.44;100.00;100578.41;4878853;29;20401;-79
2023/10/02 05:20:26;;;;;;;;;;;;;;;16.40;100.00;100582.38;4904062;29;19961;-79
2023/10/02 05:22:58;;;;;;;;;;;;;;;16.32;100.00;100590.28;4902805;29;20017;-79
2023/10/02 05:25:25;;;;;;;;;;;;;;;16.29;100.00;100585.28;4899992;29;19924;-77
2023/10/02 05:27:52;;;;;;;;;;;;;;;16.30;100.00;100581.63;4903356;29;19931;-78
2023/10/02 05:30:18;;;;;;;;;;;;;;;16.21;100.00;100587.88;4886226;29;19928;-78
2023/10/02 05:32:43;;;;;;;;;;;;;;;16.20;100.00;100591.53;4888913;29;19930;-78
2023/10/02 05:37:39;;;;;;;;;;;;;;;16.32;100.00;100592.94;4905338;29;19972;-78
2023/10/02 05:42:53;;;;;;;;;;;;;;;16.32;100.00;100596.44;4902376;29;20424;-79
2023/10/02 05:46:08;;;;;;;;;;;;;;;16.36;100.00;100602.31;4906469;29;19923;-80
2023/10/02 05:48:09;;;;;;;;;;;;;;;16.43;100.00;100600.72;4888646;29;19932;-79
2023/10/02 05:50:40;;;;;;;;;;;;;;;16.48;100.00;100606.41;4903698;29;19927;-79
2023/10/02 05:53:06;;;;;;;;;;;;;;;16.50;100.00;100609.75;4902169;29;20420;-79
2023/10/02 05:55:56;;;;;;;;;;;;;;;16.54;100.00;100611.13;4903239;29;19923;-78
2023/10/02 05:58:27;;;;;;;;;;;;;;;16.50;100.00;100615.06;4903654;29;19923;-79
2023/10/02 06:00:53;;;;;;;;;;;;;;;16.54;100.00;100613.78;4902937;29;19924;-79
2023/10/02 06:03:18;;;;;;;;;;;;;;;16.62;100.00;100624.53;4917237;23;19934;-82
2023/10/02 06:06:06;;;;;;;;;;;;;;;16.60;100.00;100623.03;4873002;29;20022;-81
2023/10/02 06:08:33;;;;;;;;;;;;;;;16.67;100.00;100624.88;4873427;29;20684;-80
2023/10/02 06:11:08;;;;;;;;;;;;;;;16.71;100.00;100618.28;4870378;29;20394;-81
2023/10/02 06:13:37;;;;;;;;;;;;;;;16.81;100.00;100627.97;4873283;29;20660;-81
2023/10/02 06:16:03;;;;;;;;;;;;;;;16.85;100.00;100618.69;4873382;29;19928;-81
2023/10/02 06:18:28;;;;;;;;;;;;;;;16.87;100.00;100630.03;4870606;29;19927;-80
2023/10/02 06:21:00;;;;;;;;;;;;;;;16.92;100.00;100627.72;4872983;29;20034;-82
2023/10/02 06:23:30;;;;;;;;;;;;;;;16.95;100.00;100628.25;4874108;29;19924;-81
2023/10/02 06:25:59;;;;;;;;;;;;;;;16.96;100.00;100626.44;4873757;29;20288;-81
2023/10/02 06:28:28;;;;;;;;;;;;;;;16.96;100.00;100627.25;4881475;29;20039;-81
2023/10/02 06:30:56;;;;;;;;;;;;;;;16.98;100.00;100635.09;4880036;29;19932;-81
2023/10/02 06:33:22;;;;;;;;;;;;;;;17.03;100.00;100633.63;4880067;29;20347;-81
2023/10/02 06:35:56;;;;;;;;;;;;;;;17.11;100.00;100636.34;4878689;29;19931;-81
2023/10/02 06:38:25;;;;;;;;;;;;;;;17.11;100.00;100636.34;4878461;29;20345;-81
2023/10/02 06:40:57;;;;;;;;;;;;;;;17.20;100.00;100642.53;4875688;29;19924;-81
2023/10/02 06:43:32;;;;;;;;;;;;;;;17.21;100.00;100641.53;4880668;29;19979;-81
2023/10/02 06:46:16;;;;;;;;;;;;;;;17.27;100.00;100640.91;4884226;29;20366;-81
2023/10/02 06:48:43;;;;;;;;;;;;;;;17.38;100.00;100642.44;4876833;29;19923;-81
2023/10/02 06:51:10;;;;;;;;;;;;;;;17.43;100.00;100649.00;4882909;29;20371;-81
2023/10/02 06:53:40;;;;;;;;;;;;;;;17.49;100.00;100647.53;4881219;29;19995;-81
2023/10/02 06:56:12;;;;;;;;;;;;;;;17.54;100.00;100643.38;4880665;29;19928;-82
2023/10/02 06:58:59;;;;;;;;;;;;;;;17.61;100.00;100648.94;4881547;29;19959;-81
2023/10/02 07:01:27;;;;;;;;;;;;;;;17.68;100.00;100649.09;4883738;29;20242;-81
2023/10/02 07:03:55;;;;;;;;;;;;;;;17.71;100.00;100652.31;4884557;29;19927;-81
2023/10/02 07:06:21;;;;;;;;;;;;;;;17.74;100.00;100656.47;4880838;29;20378;-81
2023/10/02 07:08:48;;;;;;;;;;;;;;;17.76;100.00;100654.47;4881260;29;19924;-81
2023/10/02 07:11:14;;;;;;;;;;;;;;;17.81;100.00;100654.81;4880893;29;20291;-81
2023/10/02 07:13:51;;;;;;;;;;;;;;;17.87;100.00;100659.53;4877399;29;20010;-81
2023/10/02 07:16:17;;;;;;;;;;;;;;;17.89;100.00;100655.69;4883734;29;19924;-81
2023/10/02 07:18:49;;;;;;;;;;;;;;;17.93;100.00;100653.53;4876503;29;20287;-81
2023/10/02 07:21:21;;;;;;;;;;;;;;;18.04;100.00;100655.88;4878651;29;19972;-81
2023/10/02 07:23:47;;;;;;;;;;;;;;;18.19;100.00;100656.94;4878202;29;19931;-81
2023/10/02 07:26:14;;;;;;;;;;;;;;;18.30;100.00;100653.94;4856160;29;19932;-81
2023/10/02 07:28:50;;;;;;;;;;;;;;;18.37;100.00;100657.63;4880272;29;20046;-82
2023/10/02 07:31:16;;;;;;;;;;;;;;;18.41;100.00;100664.28;4878161;29;19932;-81
2023/10/02 07:33:44;;;;;;;;;;;;;;;18.55;100.00;100659.31;4884569;29;20172;-81
2023/10/02 07:36:14;;;;;;;;;;;;;;;18.76;100.00;100663.13;4879851;29;19967;-83
2023/10/02 07:38:42;;;;;;;;;;;;;;;18.82;100.00;100661.63;4875359;29;19930;-80
2023/10/02 07:41:14;;;;;;;;;;;;;;;18.81;100.00;100665.31;4870046;29;19936;-80
2023/10/02 07:43:40;;;;;;;;;;;;;;;18.79;100.00;100653.97;4876230;29;19936;-81
2023/10/02 07:46:14;;;;;;;;;;;;;;;18.78;100.00;100657.63;4871938;29;19928;-81
2023/10/02 07:48:41;;;;;;;;;;;;;;;18.79;100.00;100654.75;4875632;29;19935;-82
2023/10/02 07:51:09;;;;;;;;;;;;;;;18.84;100.00;100653.44;4875616;29;19935;-82
2023/10/02 07:53:40;;;;;;;;;;;;;;;18.88;100.00;100660.94;4874661;29;19948;-81
2023/10/02 07:56:06;;;;;;;;;;;;;;;18.88;100.00;100655.59;4874707;29;19932;-82
2023/10/02 07:58:35;;;;;;;;;;;;;;;18.96;100.00;100658.28;4874756;29;20399;-80
2023/10/02 08:01:06;;;;;;;;;;;;;;;19.02;100.00;100652.25;4873869;29;19931;-82
2023/10/02 08:03:32;;;;;;;;;;;;;;;19.08;100.00;100662.25;4859751;29;19931;-80
2023/10/02 08:06:20;;;;;;;;;;;;;;;19.15;100.00;100663.22;4875320;29;19924;-82
2023/10/02 08:08:46;;;;;;;;;;;;;;;19.23;100.00;100665.88;4875899;29;20086;-82
2023/10/02 08:11:11;;;;;;;;;;;;;;;19.29;100.00;100668.88;4875665;29;20397;-82
2023/10/02 08:13:37;;;;;;;;;;;;;;;19.37;100.00;100671.53;4871301;29;19924;-81
2023/10/02 08:16:17;;;;;;;;;;;;;;;19.40;100.00;100671.19;4844887;29;19928;-82
2023/10/02 08:18:58;;;;;;;;;;;;;;;19.47;100.00;100672.19;4872639;29;19977;-81
2023/10/02 08:21:35;;;;;;;;;;;;;;;19.52;100.00;100675.19;4873923;29;19924;-80
2023/10/02 08:24:03;;;;;;;;;;;;;;;19.58;100.00;100663.78;4871714;29;19935;-82
2023/10/02 08:26:38;;;;;;;;;;;;;;;19.65;100.00;100658.56;4874548;29;19924;-83
2023/10/02 08:29:10;;;;;;;;;;;;;;;19.70;100.00;100662.41;4873766;29;19973;-83
2023/10/02 08:31:42;;;;;;;;;;;;;;;19.73;100.00;100656.72;4872361;29;19924;-81
2023/10/02 08:34:09;;;;;;;;;;;;;;;19.79;100.00;100661.31;4880939;29;19932;-82
2023/10/02 08:36:36;;;;;;;;;;;;;;;19.82;100.00;100663.66;4874420;29;19931;-81
2023/10/02 08:39:02;;;;;;;;;;;;;;;19.89;100.00;100667.31;4874272;29;19924;-81
2023/10/02 08:41:27;;;;;;;;;;;;;;;19.95;100.00;100666.63;4873139;29;20001;-82
2023/10/02 08:43:53;;;;;;;;;;;;;;;19.99;100.00;100667.94;4875554;29;19932;-81
2023/10/02 08:46:21;;;;;;;;;;;;;;;20.04;100.00;100665.53;4873553;29;19931;-82
2023/10/02 08:48:56;;;;;;;;;;;;;;;20.10;100.00;100664.00;4875753;29;19930;-81
2023/10/02 08:51:48;;;;;;;;;;;;;;;20.16;100.00;100660.63;4872482;29;19963;-82
2023/10/02 08:54:15;;;;;;;;;;;;;;;20.22;100.00;100662.59;4874951;29;19927;-82
2023/10/02 08:56:44;;;;;;;;;;;;;;;20.28;100.00;100669.91;4875864;29;19928;-82
2023/10/02 08:59:26;;;;;;;;;;;;;;;20.32;100.00;100662.41;4870363;29;19953;-82
2023/10/02 09:02:05;;;;;;;;;;;;;;;20.37;100.00;100660.84;4876360;29;19936;-81
2023/10/02 09:04:58;;;;;;;;;;;;;;;20.41;100.00;100655.94;4873416;29;19979;-82
2023/10/02 09:07:24;;;;;;;;;;;;;;;20.47;100.00;100657.91;4872791;29;19930;-81
2023/10/02 09:10:18;;;;;;;;;;;;;;;20.53;100.00;100653.66;4876312;29;19932;-82
2023/10/02 09:12:50;;;;;;;;;;;;;;;20.58;100.00;100652.13;4869430;29;20006;-81
2023/10/02 09:15:29;;;;;;;;;;;;;;;20.63;100.00;100655.09;4872214;29;20472;-81
2023/10/02 09:17:57;;;;;;;;;;;;;;;20.71;100.00;100651.50;4872855;29;19924;-81
2023/10/02 09:20:38;;;;;;;;;;;;;;;20.75;100.00;100653.63;4872777;29;20469;-81
2023/10/02 09:23:08;;;;;;;;;;;;;;;20.82;100.00;100654.56;4871574;29;19924;-81
2023/10/02 09:25:40;;;;;;;;;;;;;;;20.88;100.00;100652.19;4870244;29;20393;-81
2023/10/02 09:28:13;;;;;;;;;;;;;;;20.91;100.00;100641.91;4875524;29;20404;-82
2023/10/02 09:30:41;;;;;;;;;;;;;;;20.99;100.00;100643.69;4874325;29;19924;-81
2023/10/02 09:33:33;;;;;;;;;;;;;;;21.03;100.00;100645.00;4877088;29;20392;-82
2023/10/02 09:35:58;;;;;;;;;;;;;;;21.08;100.00;100642.59;4875032;29;20373;-82
2023/10/02 09:38:31;;;;;;;;;;;;;;;21.14;100.00;100636.47;4870640;29;19987;-82
2023/10/02 09:43:32;;;;;;;;;;;;;;;21.25;100.00;100649.47;4873693;29;19923;-82
2023/10/02 09:46:05;;;;;;;;;;;;;;;21.32;100.00;100641.50;4870283;29;20407;-82
2023/10/02 09:51:26;;;;;;;;;;;;;;;21.43;100.00;100630.31;4871161;29;20475;-82
2023/10/02 09:54:05;;;;;;;;;;;;;;;21.47;100.00;100629.72;4875569;29;19935;-84
2023/10/02 09:56:51;;;;;;;;;;;;;;;21.51;100.00;100631.00;4874325;29;19957;-81
2023/10/02 09:59:22;;;;;;;;;;;;;;;21.56;100.00;100628.59;4869875;29;19924;-82
2023/10/02 10:02:07;;;;;;;;;;;;;;;21.62;100.00;100625.16;4872362;29;19995;-82
2023/10/02 10:07:46;;;;;;;;;;;;;;;21.73;100.00;100614.97;4841055;29;20374;-82
2023/10/02 10:10:47;;;;;;;;;;;;;;;21.78;100.00;100626.81;4870723;29;20429;-81
2023/10/02 10:13:26;;;;;;;;;;;;;;;21.86;100.00;100621.28;4867929;29;19939;-80
2023/10/02 10:16:10;;;;;;;;;;;;;;;21.91;100.00;100612.69;4874226;29;19924;-82
2023/10/02 10:21:55;;;;;;;;;;;;;;;22.04;100.00;100613.66;4876475;29;20381;-83
2023/10/02 10:27:36;;;;;;;;;;;;;;;22.18;100.00;100613.81;4872561;29;19927;-83
2023/10/02 10:30:24;;;;;;;;;;;;;;;22.22;100.00;100610.53;4871228;29;20267;-81
2023/10/02 10:33:26;;;;;;;;;;;;;;;22.28;100.00;100603.56;4873226;29;20917;-83
2023/10/02 10:35:49;;;;;;;;;;;;;;;22.32;100.00;100605.69;4874171;29;20488;-83
2023/10/02 10:41:09;;;;;;;;;;;;;;;22.39;100.00;100601.16;4869311;29;19924;-83
2023/10/02 10:43:55;;;;;;;;;;;;;;;22.44;100.00;100609.47;4871872;29;20341;-81
2023/10/02 10:46:26;;;;;;;;;;;;;;;22.51;100.00;100597.94;4869948;29;19942;-81
2023/10/02 10:49:08;;;;;;;;;;;;;;;22.56;100.00;100596.34;4871261;29;19928;-83
2023/10/02 10:51:37;;;;;;;;;;;;;;;22.64;100.00;100603.44;4872524;29;19976;-82
2023/10/02 10:54:12;;;;;;;;;;;;;;;22.69;100.00;100598.28;4868618;29;20072;-82
2023/10/02 10:56:43;;;;;;;;;;;;;;;22.79;100.00;100596.16;4861236;29;20292;-82
2023/10/02 10:59:12;;;;;;;;;;;;;;;22.91;100.00;100593.75;4871620;29;19935;-82
2023/10/02 11:04:39;;;;;;;;;;;;;;;23.11;100.00;100592.81;4874821;29;19979;-83
2023/10/02 11:07:19;;;;;;;;;;;;;;;23.18;100.00;100580.22;4851590;29;20258;-83
2023/10/02 11:10:19;;;;;;;;;;;;;;;23.32;100.00;100583.81;4873325;29;19924;-82
2023/10/02 11:12:59;;;;;;;;;;;;;;;23.41;100.00;100579.06;4874310;29;19924;-82
2023/10/02 11:15:47;;;;;;;;;;;;;;;23.52;100.00;100573.13;4857398;29;19935;-83
2023/10/02 11:18:20;;;;;;;;;;;;;;;23.65;100.00;100567.78;4876167;29;19932;-82
2023/10/02 11:20:51;;;;;;;;;;;;;;;23.77;100.00;100574.25;4873876;29;20285;-83
2023/10/02 11:23:23;;;;;;;;;;;;;;;23.95;100.00;100577.19;4875880;29;19928;-82
2023/10/02 11:25:56;;;;;;;;;;;;;;;24.11;100.00;100564.34;4875120;29;20277;-82
2023/10/02 11:28:31;;;;;;;;;;;;;;;24.26;100.00;100562.31;4875554;29;20014;-82
2023/10/02 11:31:35;;;;;;;;;;;;;;;24.42;100.00;100556.50;4875580;29;19919;-82
2023/10/02 11:34:04;;;;;;;;;;;;;;;24.57;100.00;100549.00;4875594;29;19972;-82
2023/10/02 11:36:34;;;;;;;;;;;;;;;24.72;100.00;100538.81;4875581;29;19980;-82
2023/10/02 11:39:08;;;;;;;;;;;;;;;24.85;100.00;100544.19;4875513;29;19920;-82
2023/10/02 11:41:35;;;;;;;;;;;;;;;24.96;100.00;100545.44;4875283;29;19924;-82
2023/10/02 11:44:00;;;;;;;;;;;;;;;25.02;100.00;100532.94;4876728;29;19947;-83
2023/10/02 11:46:25;;;;;;;;;;;;;;;25.11;100.00;100528.97;4874181;29;19924;-82
2023/10/02 11:48:51;;;;;;;;;;;;;;;25.20;100.00;100523.13;4877197;29;19931;-83
2023/10/02 11:51:17;;;;;;;;;;;;;;;25.31;100.00;100529.72;4873306;29;19955;-82
2023/10/02 11:53:42;;;;;;;;;;;;;;;25.42;100.00;100520.94;4858778;29;19928;-83
2023/10/02 11:56:08;;;;;;;;;;;;;;;25.52;100.00;100520.44;4873693;29;19932;-83
2023/10/02 11:58:33;;;;;;;;;;;;;;;25.69;100.00;100511.63;4878622;29;19924;-82
2023/10/02 12:01:02;;;;;;;;;;;;;;;25.81;100.00;100514.47;4871390;29;19924;-82
2023/10/02 12:03:27;;;;;;;;;;;;;;;25.95;100.00;100507.09;4873187;29;19927;-83
2023/10/02 12:05:54;;;;;;;;;;;;;;;26.07;100.00;100505.34;4869058;29;19947;-83
2023/10/02 12:08:21;;;;;;;;;;;;;;;26.14;100.00;100503.41;4878226;29;19923;-83
2023/10/02 12:10:47;;;;;;;;;;;;;;;26.28;100.00;100490.59;4876498;29;20296;-83
2023/10/02 12:13:12;;;;;;;;;;;;;;;26.41;100.00;100493.19;4874233;29;19928;-83
2023/10/02 12:15:38;;;;;;;;;;;;;;;26.49;100.00;100501.88;4874695;29;19924;-81
2023/10/02 12:18:04;;;;;;;;;;;;;;;26.42;100.00;100489.44;4876005;29;19930;-83
2023/10/02 12:20:30;;;;;;;;;;;;;;;26.48;100.00;100494.78;4871684;29;19979;-82
2023/10/02 12:22:56;;;;;;;;;;;;;;;26.58;100.00;100490.72;4874613;29;19963;-84
2023/10/02 12:25:21;;;;;;;;;;;;;;;26.68;100.00;100493.75;4872584;29;19973;-84
2023/10/02 12:27:49;;;;;;;;;;;;;;;26.81;100.00;100489.00;4857875;29;19931;-82
2023/10/02 12:30:15;;;;;;;;;;;;;;;26.96;100.00;100485.97;4874424;29;20323;-83
2023/10/02 12:32:41;;;;;;;;;;;;;;;27.06;100.00;100480.81;4875503;29;19931;-82
2023/10/02 12:35:07;;;;;;;;;;;;;;;27.18;100.00;100483.59;4891607;29;19928;-81
2023/10/02 12:37:32;;;;;;;;;;;;;;;27.26;100.00;100480.56;4885065;29;19971;-83
2023/10/02 12:39:58;;;;;;;;;;;;;;;27.36;100.00;100474.59;4880757;29;19927;-84
2023/10/02 12:42:24;;;;;;;;;;;;;;;27.49;100.00;100468.97;4878413;29;20286;-84
2023/10/02 12:44:50;;;;;;;;;;;;;;;27.59;100.00;100475.53;4876717;29;19923;-82
2023/10/02 12:47:15;;;;;;;;;;;;;;;27.72;100.00;100462.81;4875828;29;19931;-84
2023/10/02 12:49:41;;;;;;;;;;;;;;;27.79;100.00;100464.38;4876064;29;19970;-84
2023/10/02 12:52:07;;;;;;;;;;;;;;;27.90;99.40;100455.44;4875562;29;19928;-84
2023/10/02 12:54:32;;;;;;;;;;;;;;;27.99;99.67;100453.19;4872493;29;19935;-85
2023/10/02 12:56:57;;;;;;;;;;;;;;;28.01;99.11;100449.19;4876408;29;19931;-84
2023/10/02 12:59:23;;;;;;;;;;;;;;;27.94;97.53;100447.63;4872753;29;19928;-82
2023/10/02 13:01:50;;;;;;;;;;;;;;;27.93;98.59;100444.09;4876974;29;19927;-84
2023/10/02 13:04:16;;;;;;;;;;;;;;;27.96;97.10;100438.22;4873151;29;20330;-84
2023/10/02 13:06:45;;;;;;;;;;;;;;;27.93;96.81;100433.25;4872943;29;19923;-82
2023/10/02 13:09:14;;;;;;;;;;;;;;;27.90;96.56;100438.31;4873648;29;19924;-83
2023/10/02 13:11:44;;;;;;;;;;;;;;;27.89;95.95;100425.81;4875117;29;20387;-82
2023/10/02 13:14:11;;;;;;;;;;;;;;;27.98;97.72;100425.22;4868859;29;19931;-82
2023/10/02 13:16:37;;;;;;;;;;;;;;;28.11;96.80;100424.16;4870446;29;19924;-83
2023/10/02 13:19:06;;;;;;;;;;;;;;;28.18;92.22;100418.66;4874415;29;19927;-83
2023/10/02 13:21:31;;;;;;;;;;;;;;;28.17;93.02;100417.81;4874618;29;20297;-84
2023/10/02 13:23:57;;;;;;;;;;;;;;;28.14;92.63;100418.31;4874406;29;19924;-84
2023/10/02 13:26:23;;;;;;;;;;;;;;;28.25;93.48;100430.22;4853786;29;19955;-83
2023/10/02 13:28:52;;;;;;;;;;;;;;;28.36;92.54;100421.22;4876378;29;20351;-84
2023/10/02 13:31:18;;;;;;;;;;;;;;;28.45;92.02;100426.06;4871839;29;20333;-84
2023/10/02 13:33:51;;;;;;;;;;;;;;;28.51;92.18;100418.88;4876682;29;19971;-83
2023/10/02 13:36:22;;;;;;;;;;;;;;;28.58;92.63;100411.38;4873754;29;19924;-84
2023/10/02 13:38:49;;;;;;;;;;;;;;;28.66;92.72;100413.75;4874695;29;19969;-84
2023/10/02 13:41:14;;;;;;;;;;;;;;;28.67;90.89;100407.25;4869765;29;19925;-83